Time;durP1;ratioP1;P1;durP2;ratioP2;P2;SDS_P1;SDS_P2;PMS_P1;PMS_P2;Temp;Humidity;BMP_temperature;BMP_pressure;BME280_temperature;BME280_humidity;BME280_pressure;Samples;Min_cycle;Max_cycle;Signal;HPM_P1;HPM_P2
2022/04/27 00:00:03;;;;;;;0.33;0.33;;;10.00;99.90;;;;;;5005500;28;20214;-81
2022/04/27 00:02:30;;;;;;;0.80;0.60;;;10.00;99.90;;;;;;5012627;28;20205;-82
2022/04/27 00:04:57;;;;;;;1.03;0.97;;;10.00;99.90;;;;;;5004382;28;20180;-83
2022/04/27 00:07:22;;;;;;;2.07;0.60;;;10.00;99.90;;;;;;5005013;28;20200;-82
2022/04/27 00:09:48;;;;;;;0.30;0.30;;;10.00;99.90;;;;;;5013280;28;20276;-82
2022/04/27 00:12:13;;;;;;;0.93;0.90;;;9.90;99.90;;;;;;4999491;28;20222;-83
2022/04/27 00:14:39;;;;;;;0.40;0.40;;;9.80;99.90;;;;;;4999456;28;20652;-83
2022/04/27 00:17:05;;;;;;;0.77;0.67;;;9.70;99.90;;;;;;4999648;28;20607;-82
2022/04/27 00:19:31;;;;;;;0.53;0.37;;;9.70;99.90;;;;;;4999554;28;20214;-82
2022/04/27 00:21:57;;;;;;;0.80;0.50;;;9.60;99.90;;;;;;5013745;28;20254;-82
2022/04/27 00:24:22;;;;;;;0.40;0.40;;;9.50;99.90;;;;;;5012378;28;20191;-82
2022/04/27 00:26:48;;;;;;;0.40;0.40;;;9.40;99.90;;;;;;5013646;28;20188;-82
2022/04/27 00:29:14;;;;;;;0.80;0.47;;;9.40;99.90;;;;;;4998113;28;20187;-81
2022/04/27 00:31:39;;;;;;;2.43;1.40;;;9.30;99.90;;;;;;5001006;28;20264;-82
2022/04/27 00:34:05;;;;;;;0.87;0.63;;;9.20;99.90;;;;;;5016650;28;20190;-82
2022/04/27 00:36:31;;;;;;;0.83;0.57;;;9.10;99.90;;;;;;5009061;28;20191;-81
2022/04/27 00:38:58;;;;;;;1.23;0.70;;;9.00;99.90;;;;;;5018091;28;20193;-82
2022/04/27 00:41:24;;;;;;;0.60;0.60;;;9.00;99.90;;;;;;5003226;28;20211;-81
2022/04/27 00:43:50;;;;;;;0.10;0.10;;;8.90;99.90;;;;;;5017395;28;20192;-81
2022/04/27 00:46:15;;;;;;;0.30;0.30;;;8.90;99.90;;;;;;5016846;28;20189;-82
2022/04/27 00:48:41;;;;;;;0.30;0.30;;;8.80;99.90;;;;;;5008409;28;20188;-82
2022/04/27 00:51:10;;;;;;;3.60;0.70;;;8.70;99.90;;;;;;5003491;28;20276;-81
2022/04/27 00:53:37;;;;;;;0.30;0.30;;;8.70;99.90;;;;;;5001151;28;20567;-82
2022/04/27 00:56:03;;;;;;;1.03;0.57;;;8.70;99.90;;;;;;5002605;28;20276;-82
2022/04/27 00:58:29;;;;;;;1.13;0.70;;;8.60;99.90;;;;;;5001108;28;20248;-81
2022/04/27 01:00:55;;;;;;;1.03;0.40;;;8.70;99.90;;;;;;5002011;28;20308;-83
2022/04/27 01:03:22;;;;;;;0.77;0.60;;;8.60;99.90;;;;;;5003499;28;20186;-82
2022/04/27 01:05:48;;;;;;;0.77;0.60;;;8.60;99.90;;;;;;5000389;28;20182;-82
2022/04/27 01:08:21;;;;;;;0.80;0.80;;;8.60;99.90;;;;;;5001742;28;20234;-82
2022/04/27 01:10:47;;;;;;;0.40;0.40;;;8.60;99.90;;;;;;5000618;28;20601;-81
2022/04/27 01:13:14;;;;;;;0.30;0.30;;;8.50;99.90;;;;;;5002810;28;20598;-82
2022/04/27 01:15:40;;;;;;;0.43;0.43;;;8.50;99.90;;;;;;5006593;28;20703;-82
2022/04/27 01:18:08;;;;;;;1.87;1.17;;;8.50;99.90;;;;;;5008501;28;20673;-82
2022/04/27 01:20:38;;;;;;;0.80;0.80;;;8.60;99.90;;;;;;5006352;28;20640;-81
2022/04/27 01:23:04;;;;;;;0.70;0.70;;;8.60;99.90;;;;;;5000610;28;20199;-82
2022/04/27 01:25:48;;;;;;;0.93;0.93;;;8.60;99.90;;;;;;5002609;28;20253;-82
2022/04/27 01:28:18;;;;;;;1.60;0.70;;;8.50;99.90;;;;;;5016213;28;20194;-82
2022/04/27 01:30:44;;;;;;;1.53;0.67;;;8.50;99.90;;;;;;5016465;28;21282;-84
2022/04/27 01:33:11;;;;;;;0.60;0.60;;;8.30;99.90;;;;;;4999469;28;20200;-82
2022/04/27 01:35:37;;;;;;;1.27;1.07;;;8.30;99.90;;;;;;5005477;28;20623;-82
2022/04/27 01:38:03;;;;;;;0.80;0.80;;;8.20;99.90;;;;;;5000078;28;20187;-82
2022/04/27 01:40:29;;;;;;;0.50;0.50;;;8.30;99.90;;;;;;5014330;28;20694;-82
2022/04/27 01:42:55;;;;;;;1.23;1.13;;;8.40;99.90;;;;;;5015243;28;20200;-82
2022/04/27 01:45:20;;;;;;;1.27;1.13;;;8.40;99.90;;;;;;5001190;28;20184;-81
2022/04/27 01:47:46;;;;;;;0.97;0.97;;;8.40;99.90;;;;;;5001904;28;20206;-83
2022/04/27 01:50:13;;;;;;;1.00;0.90;;;8.40;99.90;;;;;;5016025;28;20212;-82
2022/04/27 01:55:23;;;;;;;4.07;0.40;;;8.30;99.90;;;;;;5000846;28;20276;-82
2022/04/27 01:57:48;;;;;;;1.00;0.57;;;8.30;99.90;;;;;;4999282;28;20277;-84
2022/04/27 02:00:15;;;;;;;1.60;1.00;;;8.30;99.90;;;;;;5000623;28;20220;-81
2022/04/27 02:02:41;;;;;;;3.30;0.73;;;8.30;99.90;;;;;;4998766;28;20192;-82
2022/04/27 02:05:07;;;;;;;1.20;0.60;;;8.40;99.90;;;;;;4999029;28;20188;-84
2022/04/27 02:07:32;;;;;;;1.50;0.60;;;8.30;99.90;;;;;;5006476;28;20283;-82
2022/04/27 02:09:58;;;;;;;2.33;0.87;;;8.40;99.90;;;;;;4999994;28;20216;-83
2022/04/27 02:12:24;;;;;;;0.43;0.33;;;8.40;99.90;;;;;;5014992;28;20915;-82
2022/04/27 02:14:49;;;;;;;0.93;0.93;;;8.40;99.90;;;;;;5005813;28;20193;-82
2022/04/27 02:17:15;;;;;;;0.73;0.73;;;8.40;99.90;;;;;;5000457;28;20540;-82
2022/04/27 02:19:41;;;;;;;0.70;0.70;;;8.30;99.90;;;;;;4999730;28;20230;-82
2022/04/27 02:22:06;;;;;;;0.60;0.60;;;8.30;99.90;;;;;;5005780;28;21042;-82
2022/04/27 02:24:32;;;;;;;1.00;0.73;;;8.40;99.90;;;;;;4999524;28;20182;-82
2022/04/27 02:26:58;;;;;;;0.67;0.67;;;8.20;99.90;;;;;;5005765;28;20181;-82
2022/04/27 02:29:23;;;;;;;1.40;0.87;;;8.30;99.90;;;;;;5015362;28;21144;-83
2022/04/27 02:31:49;;;;;;;1.87;1.00;;;8.20;99.90;;;;;;4998165;28;20613;-83
2022/04/27 02:34:15;;;;;;;0.63;0.63;;;8.10;99.90;;;;;;4998236;28;20186;-82
2022/04/27 02:36:41;;;;;;;1.07;0.90;;;8.20;99.90;;;;;;4999740;28;20256;-82
2022/04/27 02:39:07;;;;;;;0.83;0.80;;;8.30;99.90;;;;;;5006879;28;20185;-81
2022/04/27 02:41:33;;;;;;;1.17;1.07;;;8.30;99.90;;;;;;4999118;28;20259;-83
2022/04/27 02:43:58;;;;;;;0.40;0.40;;;8.30;99.90;;;;;;4997819;28;20915;-83
2022/04/27 02:46:24;;;;;;;0.40;0.40;;;8.20;99.90;;;;;;4997140;28;20263;-82
2022/04/27 02:51:51;;;;;;;0.83;0.83;;;8.00;99.90;;;;;;5000295;28;20810;-84
2022/04/27 02:54:17;;;;;;;1.03;0.77;;;7.70;99.90;;;;;;5003783;28;20185;-82
2022/04/27 02:56:43;;;;;;;0.40;0.40;;;7.70;99.90;;;;;;4998846;28;20215;-82
2022/04/27 02:59:09;;;;;;;0.63;0.63;;;7.80;99.90;;;;;;4999001;28;20200;-82
2022/04/27 03:01:35;;;;;;;1.33;1.10;;;7.80;99.90;;;;;;4999003;28;20698;-82
2022/04/27 03:04:02;;;;;;;1.07;0.80;;;7.80;99.90;;;;;;4995329;28;20189;-83
2022/04/27 03:06:28;;;;;;;1.83;0.70;;;7.80;99.90;;;;;;4999030;28;20664;-82
2022/04/27 03:08:53;;;;;;;0.60;0.40;;;7.80;99.90;;;;;;4997031;28;20220;-83
2022/04/27 03:11:19;;;;;;;0.73;0.67;;;7.80;99.90;;;;;;5014061;28;20200;-83
2022/04/27 03:13:45;;;;;;;0.63;0.57;;;7.70;99.90;;;;;;4999027;28;20269;-83
2022/04/27 03:16:11;;;;;;;1.50;0.60;;;7.80;99.90;;;;;;4998858;28;20181;-84
2022/04/27 03:18:37;;;;;;;0.60;0.60;;;7.80;99.90;;;;;;4999268;28;20200;-82
2022/04/27 03:21:03;;;;;;;0.60;0.60;;;7.80;99.90;;;;;;4997656;28;20299;-83
2022/04/27 03:23:29;;;;;;;1.30;0.77;;;7.70;99.90;;;;;;5014540;28;20266;-82
2022/04/27 03:25:55;;;;;;;0.53;0.53;;;7.70;99.90;;;;;;5004765;28;20207;-82
2022/04/27 03:28:21;;;;;;;0.20;0.20;;;7.70;99.90;;;;;;5004563;28;20185;-83
2022/04/27 03:30:49;;;;;;;0.63;0.63;;;7.70;99.90;;;;;;4999247;28;20236;-81
2022/04/27 03:33:16;;;;;;;1.17;1.03;;;7.70;99.90;;;;;;5004436;28;20200;-82
2022/04/27 03:35:41;;;;;;;0.77;0.77;;;7.60;99.90;;;;;;5006149;28;20721;-84
2022/04/27 03:38:08;;;;;;;0.47;0.47;;;7.60;99.90;;;;;;5004781;28;20194;-81
2022/04/27 03:40:34;;;;;;;0.73;0.73;;;7.50;99.90;;;;;;5004937;28;20219;-82
2022/04/27 03:43:00;;;;;;;0.53;0.53;;;7.50;99.90;;;;;;5012516;28;20279;-82
2022/04/27 03:45:25;;;;;;;2.03;0.70;;;7.50;99.90;;;;;;4999673;28;20302;-82
2022/04/27 03:47:51;;;;;;;1.10;0.97;;;7.50;99.90;;;;;;4999992;28;20534;-84
2022/04/27 03:50:17;;;;;;;0.63;0.63;;;7.50;99.90;;;;;;4998627;28;20668;-82
2022/04/27 03:52:43;;;;;;;1.50;1.00;;;7.60;99.90;;;;;;4999651;28;20194;-82
2022/04/27 03:55:10;;;;;;;0.67;0.67;;;7.60;99.90;;;;;;5005683;28;20188;-82
2022/04/27 03:57:35;;;;;;;0.60;0.47;;;7.40;99.90;;;;;;5004517;28;20662;-82
2022/04/27 04:00:01;;;;;;;0.73;0.73;;;7.50;99.90;;;;;;5005139;28;20223;-82
2022/04/27 04:02:26;;;;;;;1.87;1.47;;;7.50;99.90;;;;;;5013806;28;20179;-82
2022/04/27 04:04:52;;;;;;;0.93;0.83;;;7.50;99.90;;;;;;5001880;28;20186;-82
2022/04/27 04:07:17;;;;;;;2.83;1.07;;;7.50;99.90;;;;;;4997765;28;20675;-84
2022/04/27 04:09:43;;;;;;;0.87;0.47;;;7.60;99.90;;;;;;4998809;28;20208;-81
2022/04/27 04:12:09;;;;;;;1.70;1.60;;;7.50;99.90;;;;;;4999226;28;20195;-84
2022/04/27 04:14:36;;;;;;;0.90;0.90;;;7.50;99.90;;;;;;5000663;28;20207;-81
2022/04/27 04:17:02;;;;;;;0.57;0.57;;;7.60;99.90;;;;;;5002266;28;20203;-82
2022/04/27 04:19:28;;;;;;;3.60;1.00;;;7.60;99.90;;;;;;5002093;28;20203;-84
2022/04/27 04:21:55;;;;;;;2.30;1.47;;;7.60;99.90;;;;;;5001132;28;20199;-81
2022/04/27 04:24:20;;;;;;;2.07;0.77;;;7.60;99.90;;;;;;5007215;28;20954;-83
2022/04/27 04:29:31;;;;;;;1.17;0.80;;;7.60;99.90;;;;;;5001577;28;20322;-82
2022/04/27 04:31:57;;;;;;;0.93;0.93;;;7.60;99.90;;;;;;5007406;28;20351;-83
2022/04/27 04:34:23;;;;;;;1.07;0.97;;;7.70;99.90;;;;;;5001997;28;20224;-81
2022/04/27 04:36:48;;;;;;;1.20;1.00;;;7.70;99.90;;;;;;5007682;28;20195;-81
2022/04/27 04:39:14;;;;;;;2.13;1.83;;;7.70;99.90;;;;;;5005361;28;20265;-82
2022/04/27 04:41:40;;;;;;;0.27;0.27;;;7.70;99.90;;;;;;5001119;28;20608;-82
2022/04/27 04:44:05;;;;;;;2.07;1.33;;;7.80;99.90;;;;;;5001492;28;20180;-81
2022/04/27 04:46:31;;;;;;;0.70;0.70;;;7.80;99.90;;;;;;5006717;28;20278;-81
2022/04/27 04:48:56;;;;;;;0.73;0.63;;;7.90;99.90;;;;;;5008128;28;20250;-82
2022/04/27 04:51:22;;;;;;;0.77;0.50;;;7.90;99.90;;;;;;5006293;28;20204;-82
2022/04/27 04:53:47;;;;;;;1.87;1.10;;;7.90;99.90;;;;;;5015218;28;20190;-82
2022/04/27 04:56:13;;;;;;;0.63;0.63;;;7.90;99.90;;;;;;5002268;28;20187;-82
2022/04/27 04:58:38;;;;;;;1.53;1.07;;;7.80;99.90;;;;;;5015003;28;20208;-82
2022/04/27 05:01:04;;;;;;;0.83;0.80;;;7.70;99.90;;;;;;5001620;28;20867;-82
2022/04/27 05:03:30;;;;;;;1.40;0.70;;;7.70;99.90;;;;;;5001382;28;20209;-82
2022/04/27 05:05:56;;;;;;;0.63;0.63;;;7.70;99.90;;;;;;5000820;28;20208;-81
2022/04/27 05:08:21;;;;;;;0.80;0.80;;;7.60;99.90;;;;;;5005593;28;20273;-82
2022/04/27 05:10:48;;;;;;;0.43;0.43;;;7.70;99.90;;;;;;5000413;28;20228;-82
2022/04/27 05:13:13;;;;;;;1.70;1.17;;;7.70;99.90;;;;;;5005983;28;20185;-81
2022/04/27 05:15:39;;;;;;;0.70;0.70;;;7.70;99.90;;;;;;5006359;28;20283;-82
2022/04/27 05:18:05;;;;;;;1.40;1.30;;;7.80;99.90;;;;;;5002796;28;20193;-80
2022/04/27 05:20:30;;;;;;;0.50;0.50;;;7.80;99.90;;;;;;5013944;28;20215;-80
2022/04/27 05:22:56;;;;;;;0.80;0.67;;;7.90;99.90;;;;;;4998226;28;20191;-81
2022/04/27 05:25:22;;;;;;;1.17;1.03;;;8.00;99.90;;;;;;5000520;28;20191;-82
2022/04/27 05:27:48;;;;;;;0.70;0.70;;;8.10;99.90;;;;;;5001147;28;20199;-82
2022/04/27 05:33:18;;;;;;;0.37;0.37;;;8.30;99.90;;;;;;4976382;28;21686;-81
2022/04/27 05:35:45;;;;;;;1.57;1.47;;;8.40;99.90;;;;;;4963666;28;20953;-83
2022/04/27 05:38:11;;;;;;;1.30;1.27;;;8.40;99.90;;;;;;4991173;28;20210;-81
2022/04/27 05:40:37;;;;;;;1.20;1.10;;;8.60;99.90;;;;;;5007275;28;20215;-82
2022/04/27 05:43:07;;;;;;;1.60;1.03;;;8.70;99.90;;;;;;4999612;28;20285;-82
2022/04/27 05:45:33;;;;;;;0.40;0.40;;;8.90;99.90;;;;;;5014126;28;21111;-83
2022/04/27 05:48:00;;;;;;;0.97;0.97;;;9.00;99.90;;;;;;5006478;28;20277;-83
2022/04/27 05:50:25;;;;;;;0.83;0.80;;;9.10;99.90;;;;;;5007532;28;20289;-81
2022/04/27 05:52:52;;;;;;;2.27;0.57;;;9.40;99.90;;;;;;5015009;28;20245;-83
2022/04/27 05:55:25;;;;;;;1.50;0.70;;;9.50;99.90;;;;;;5005172;28;20190;-81
2022/04/27 05:57:50;;;;;;;0.90;0.87;;;9.70;99.90;;;;;;5006097;28;20565;-81
2022/04/27 06:00:17;;;;;;;1.07;0.67;;;9.80;99.90;;;;;;5000537;28;20256;-82
2022/04/27 06:02:44;;;;;;;3.70;1.17;;;9.80;99.90;;;;;;5004874;28;20249;-82
2022/04/27 06:05:10;;;;;;;0.67;0.67;;;10.00;99.90;;;;;;5007755;28;20187;-82
2022/04/27 06:07:36;;;;;;;0.90;0.90;;;10.20;99.90;;;;;;4998096;28;20222;-81
2022/04/27 06:10:07;;;;;;;3.03;0.73;;;10.30;99.90;;;;;;5000347;28;20213;-82
2022/04/27 06:12:36;;;;;;;4.33;0.73;;;10.20;99.90;;;;;;5005060;28;20342;-81
2022/04/27 06:15:10;;;;;;;1.03;1.03;;;10.30;99.90;;;;;;4999241;28;20266;-84
2022/04/27 06:17:35;;;;;;;1.33;1.23;;;10.60;99.90;;;;;;5015055;28;20194;-81
2022/04/27 06:20:01;;;;;;;1.10;0.30;;;10.90;99.90;;;;;;5015254;28;20229;-84
2022/04/27 06:22:26;;;;;;;0.53;0.53;;;10.90;99.90;;;;;;4996491;28;20260;-81
2022/04/27 06:24:53;;;;;;;1.03;0.70;;;11.20;99.90;;;;;;5005322;28;20326;-82
2022/04/27 06:27:18;;;;;;;1.20;0.60;;;11.40;99.90;;;;;;5005748;28;20277;-81
2022/04/27 06:29:44;;;;;;;1.47;0.73;;;11.50;99.90;;;;;;5004158;28;20305;-81
2022/04/27 06:32:10;;;;;;;0.93;0.93;;;11.70;99.90;;;;;;5005092;28;20189;-82
2022/04/27 06:34:35;;;;;;;1.50;1.37;;;11.70;99.90;;;;;;5000282;28;20195;-82
2022/04/27 06:37:01;;;;;;;1.53;1.10;;;11.80;99.90;;;;;;5006847;28;20655;-82
2022/04/27 06:39:28;;;;;;;2.17;1.27;;;11.90;99.90;;;;;;5000146;28;20221;-82
2022/04/27 06:41:54;;;;;;;1.20;0.80;;;12.00;99.90;;;;;;5013908;28;20187;-82
2022/04/27 06:44:20;;;;;;;0.60;0.60;;;12.00;99.90;;;;;;5000430;28;20187;-85
2022/04/27 06:46:46;;;;;;;1.13;0.93;;;12.10;99.90;;;;;;5002690;28;20186;-81
2022/04/27 06:49:12;;;;;;;2.00;0.97;;;12.10;99.90;;;;;;5006032;28;20210;-82
2022/04/27 06:51:37;;;;;;;0.93;0.73;;;12.30;99.90;;;;;;4998196;28;20318;-82
2022/04/27 06:54:04;;;;;;;1.47;0.87;;;12.50;99.90;;;;;;5004041;28;20188;-81
2022/04/27 06:56:29;;;;;;;1.77;1.00;;;12.70;99.90;;;;;;5005086;28;20281;-81
2022/04/27 06:58:55;;;;;;;0.77;0.77;;;12.80;99.90;;;;;;5005672;28;20274;-81
2022/04/27 07:01:21;;;;;;;2.23;2.13;;;12.90;99.90;;;;;;5005951;28;20211;-82
2022/04/27 07:03:48;;;;;;;2.40;0.83;;;12.40;99.90;;;;;;4998669;28;20202;-84
2022/04/27 07:06:13;;;;;;;0.90;0.90;;;12.60;99.90;;;;;;4999947;28;20533;-82
2022/04/27 07:08:39;;;;;;;0.60;0.60;;;12.40;99.90;;;;;;4998124;28;20253;-82
2022/04/27 07:11:05;;;;;;;1.70;1.07;;;12.70;99.90;;;;;;4997435;28;20246;-82
2022/04/27 07:13:30;;;;;;;2.67;1.47;;;12.60;99.90;;;;;;4998867;28;20225;-81
2022/04/27 07:16:00;;;;;;;0.73;0.70;;;12.80;99.90;;;;;;4997225;28;20188;-82
2022/04/27 07:18:28;;;;;;;0.50;0.50;;;12.90;99.90;;;;;;4999591;28;20179;-81
2022/04/27 07:20:53;;;;;;;0.90;0.90;;;13.10;99.90;;;;;;4998564;28;20578;-82
2022/04/27 07:23:19;;;;;;;1.57;1.47;;;13.10;99.90;;;;;;5003972;28;20179;-82
2022/04/27 07:25:44;;;;;;;2.03;1.87;;;13.00;99.90;;;;;;4998026;28;20199;-82
2022/04/27 07:28:10;;;;;;;1.30;0.67;;;13.00;99.90;;;;;;4998063;28;20250;-81
2022/04/27 07:30:35;;;;;;;1.90;1.30;;;13.30;99.90;;;;;;5013805;28;20211;-82
2022/04/27 07:33:01;;;;;;;1.90;1.30;;;12.90;99.90;;;;;;5003754;28;20187;-81
2022/04/27 07:35:26;;;;;;;0.67;0.67;;;13.20;99.90;;;;;;5013029;28;20180;-82
2022/04/27 07:37:52;;;;;;;1.40;0.83;;;13.50;99.90;;;;;;5006328;28;20219;-83
2022/04/27 07:40:18;;;;;;;1.37;0.97;;;13.80;99.90;;;;;;5006390;28;20211;-81
2022/04/27 07:42:43;;;;;;;2.63;1.07;;;13.80;99.90;;;;;;5015067;28;20186;-82
2022/04/27 07:45:09;;;;;;;2.03;1.57;;;13.70;99.90;;;;;;5001536;28;20192;-80
2022/04/27 07:47:42;;;;;;;2.23;1.40;;;13.30;99.90;;;;;;5002415;28;20189;-83
2022/04/27 07:50:10;;;;;;;3.00;0.70;;;13.50;99.90;;;;;;5003518;28;20202;-81
2022/04/27 07:52:36;;;;;;;1.40;1.00;;;14.00;99.90;;;;;;5001819;28;20192;-82
2022/04/27 07:55:02;;;;;;;0.53;0.53;;;14.40;99.90;;;;;;5003196;28;20188;-82
2022/04/27 07:57:32;;;;;;;2.33;1.07;;;14.50;99.90;;;;;;5001981;28;20212;-82
2022/04/27 07:59:59;;;;;;;0.77;0.77;;;14.70;99.90;;;;;;5001327;28;20246;-82
2022/04/27 08:02:25;;;;;;;1.37;0.83;;;14.70;99.90;;;;;;5003286;28;20192;-82
2022/04/27 08:04:51;;;;;;;1.20;0.93;;;14.70;99.90;;;;;;5003576;28;20194;-83
2022/04/27 08:07:16;;;;;;;1.37;1.17;;;14.80;99.90;;;;;;5007756;28;20734;-82
2022/04/27 08:09:42;;;;;;;2.10;1.00;;;15.00;99.90;;;;;;5007728;28;20236;-81
2022/04/27 08:12:07;;;;;;;3.00;1.53;;;14.50;99.90;;;;;;5015983;28;20197;-82
2022/04/27 08:14:34;;;;;;;1.03;0.93;;;14.10;99.90;;;;;;5008156;28;20197;-82
2022/04/27 08:17:01;;;;;;;1.20;0.83;;;14.40;99.90;;;;;;5018566;28;20204;-82
2022/04/27 08:19:27;;;;;;;1.27;1.07;;;14.80;99.90;;;;;;5013380;28;20240;-81
2022/04/27 08:21:54;;;;;;;0.83;0.83;;;15.20;99.90;;;;;;5000621;28;20223;-81
2022/04/27 08:24:21;;;;;;;0.80;0.73;;;14.90;99.90;;;;;;5014373;28;20247;-81
2022/04/27 08:26:46;;;;;;;0.87;0.87;;;15.30;99.90;;;;;;5017884;28;20196;-81
2022/04/27 08:29:12;;;;;;;1.03;1.00;;;15.60;99.90;;;;;;5002058;28;20189;-81
2022/04/27 08:31:38;;;;;;;4.53;2.37;;;15.70;99.90;;;;;;5001646;28;20258;-83
2022/04/27 08:34:03;;;;;;;2.17;1.07;;;15.20;99.90;;;;;;5000176;28;20285;-83
2022/04/27 08:36:29;;;;;;;1.40;1.30;;;14.00;99.90;;;;;;5002919;28;20186;-83
2022/04/27 08:38:54;;;;;;;1.83;1.73;;;14.40;99.90;;;;;;5007339;28;20663;-85
2022/04/27 08:41:20;;;;;;;1.33;1.23;;;14.70;99.90;;;;;;5017774;28;20227;-82
2022/04/27 08:43:46;;;;;;;2.07;1.47;;;14.50;99.90;;;;;;5007800;28;20193;-80
2022/04/27 08:46:15;;;;;;;3.10;1.33;;;14.80;99.90;;;;;;5001851;28;20242;-80
2022/04/27 08:48:44;;;;;;;1.10;1.03;;;14.50;99.90;;;;;;5014370;28;20670;-80
2022/04/27 08:51:11;;;;;;;1.23;1.13;;;14.70;99.90;;;;;;4998147;28;20298;-82
2022/04/27 08:53:37;;;;;;;1.13;1.07;;;15.00;99.90;;;;;;5016321;28;20665;-87
2022/04/27 08:56:03;;;;;;;1.07;0.97;;;14.90;99.90;;;;;;4998640;28;20364;-86
2022/04/27 08:58:28;;;;;;;5.77;1.07;;;15.50;99.90;;;;;;5000811;28;20240;-87
2022/04/27 09:00:54;;;;;;;0.80;0.67;;;16.00;99.90;;;;;;5005840;28;20456;-87
2022/04/27 09:03:27;;;;;;;2.23;1.10;;;16.10;99.90;;;;;;4999360;28;20242;-83
2022/04/27 09:06:02;;;;;;;1.33;1.07;;;15.70;99.90;;;;;;5000926;28;20258;-82
2022/04/27 09:08:46;;;;;;;1.53;1.43;;;15.70;99.90;;;;;;5007052;28;20205;-81
2022/04/27 09:11:26;;;;;;;1.33;0.73;;;15.70;99.90;;;;;;5007359;28;20691;-82
2022/04/27 09:14:02;;;;;;;1.00;1.00;;;15.60;99.90;;;;;;5014750;28;20208;-81
2022/04/27 09:22:10;;;;;;;0.80;0.80;;;15.60;99.90;;;;;;5000718;28;20235;-81
2022/04/27 09:24:57;;;;;;;1.43;0.70;;;15.30;99.90;;;;;;5000687;28;20280;-81
2022/04/27 09:27:24;;;;;;;0.80;0.80;;;16.00;99.90;;;;;;4998408;28;20187;-81
2022/04/27 09:30:07;;;;;;;1.50;1.10;;;16.50;99.90;;;;;;5001066;28;20238;-81
2022/04/27 09:32:34;;;;;;;1.93;1.50;;;16.40;99.90;;;;;;5005498;28;20263;-81
2022/04/27 09:35:02;;;;;;;0.63;0.63;;;16.40;99.90;;;;;;5015451;28;20725;-81
2022/04/27 09:37:28;;;;;;;1.10;0.87;;;16.80;99.90;;;;;;4997477;28;20222;-81
2022/04/27 09:40:19;;;;;;;4.50;0.60;;;17.00;99.90;;;;;;5001231;28;20214;-81
2022/04/27 09:42:46;;;;;;;1.10;1.03;;;17.00;99.90;;;;;;4995679;28;20227;-80
2022/04/27 09:45:19;;;;;;;1.03;0.93;;;16.60;99.90;;;;;;4999530;28;20258;-81
2022/04/27 09:48:01;;;;;;;0.63;0.63;;;16.50;99.90;;;;;;5001610;28;20198;-81
2022/04/27 09:50:44;;;;;;;6.23;1.17;;;16.70;99.90;;;;;;4999348;28;20688;-81
2022/04/27 09:53:10;;;;;;;2.10;0.97;;;17.40;99.90;;;;;;5011691;28;20198;-81
2022/04/27 09:55:43;;;;;;;0.87;0.87;;;16.50;99.90;;;;;;5007488;28;20191;-82
2022/04/27 09:58:11;;;;;;;0.97;0.77;;;17.00;99.90;;;;;;5001843;28;20286;-82
2022/04/27 10:00:38;;;;;;;1.17;0.73;;;16.80;99.90;;;;;;5002777;28;20219;-82
2022/04/27 10:03:04;;;;;;;0.80;0.80;;;16.50;99.90;;;;;;5002287;28;20191;-82
2022/04/27 10:05:30;;;;;;;0.57;0.57;;;17.00;99.90;;;;;;5001373;28;20190;-82
2022/04/27 10:07:56;;;;;;;0.60;0.60;;;17.20;99.90;;;;;;5015622;28;20203;-82
2022/04/27 10:10:22;;;;;;;0.63;0.63;;;17.70;99.90;;;;;;5006643;28;21337;-82
2022/04/27 10:12:48;;;;;;;3.23;1.10;;;17.70;99.90;;;;;;5001143;28;20195;-81
2022/04/27 10:15:14;;;;;;;1.20;1.10;;;17.40;99.90;;;;;;5000097;28;20176;-82
2022/04/27 10:17:40;;;;;;;1.87;0.80;;;16.80;99.90;;;;;;5005851;28;20213;-82
2022/04/27 10:20:30;;;;;;;0.93;0.83;;;16.30;99.90;;;;;;5014943;28;20225;-82
2022/04/27 10:23:41;;;;;;;1.53;1.27;;;16.30;99.90;;;;;;5011893;28;20179;-82
2022/04/27 10:26:09;;;;;;;0.83;0.83;;;17.10;99.90;;;;;;5005379;28;20195;-82
2022/04/27 10:28:37;;;;;;;0.70;0.70;;;17.30;99.90;;;;;;4996738;28;20203;-81
2022/04/27 10:31:04;;;;;;;0.80;0.80;;;16.60;99.90;;;;;;5013744;28;20294;-82
2022/04/27 10:33:39;;;;;;;0.87;0.87;;;16.70;99.90;;;;;;4999306;28;20186;-82
2022/04/27 10:36:36;;;;;;;1.43;1.10;;;16.50;99.90;;;;;;5004352;28;20225;-82
2022/04/27 10:39:28;;;;;;;0.67;0.67;;;16.50;99.90;;;;;;4999307;28;20550;-82
2022/04/27 10:42:19;;;;;;;1.70;1.60;;;17.00;99.90;;;;;;5005535;28;20665;-82
2022/04/27 10:44:50;;;;;;;0.83;0.80;;;17.50;99.90;;;;;;4999882;28;20587;-81
2022/04/27 10:47:18;;;;;;;1.53;1.07;;;17.40;99.90;;;;;;5001919;28;20194;-82
2022/04/27 10:49:51;;;;;;;1.23;1.17;;;17.70;99.90;;;;;;5007591;28;20203;-82
2022/04/27 10:52:23;;;;;;;2.20;0.70;;;17.70;99.90;;;;;;5006365;28;20280;-82
2022/04/27 10:54:49;;;;;;;1.90;0.83;;;18.40;99.90;;;;;;5000244;28;20184;-82
2022/04/27 10:57:14;;;;;;;0.87;0.43;;;18.70;99.90;;;;;;5007446;28;20188;-82
2022/04/27 10:59:59;;;;;;;2.53;1.13;;;18.80;99.90;;;;;;5017312;28;20252;-81
2022/04/27 11:02:34;;;;;;;1.50;1.23;;;18.10;99.90;;;;;;5016028;28;20951;-82
2022/04/27 11:05:18;;;;;;;0.77;0.77;;;18.30;99.90;;;;;;5001621;28;20182;-81
2022/04/27 11:07:55;;;;;;;1.53;1.17;;;18.80;99.90;;;;;;4999360;28;20770;-82
2022/04/27 11:10:21;;;;;;;0.40;0.40;;;19.30;99.90;;;;;;4997091;28;20199;-80
2022/04/27 11:12:56;;;;;;;0.57;0.57;;;18.40;99.90;;;;;;4998646;28;20254;-82
2022/04/27 11:15:25;;;;;;;2.10;0.80;;;18.60;99.90;;;;;;5015737;28;20276;-81
2022/04/27 11:18:01;;;;;;;3.03;1.20;;;19.10;99.90;;;;;;5000177;28;20194;-83
2022/04/27 11:20:38;;;;;;;0.67;0.60;;;17.90;99.90;;;;;;5003725;28;20227;-83
2022/04/27 11:23:19;;;;;;;0.33;0.33;;;18.60;99.90;;;;;;5004141;28;20191;-82
2022/04/27 11:25:50;;;;;;;0.40;0.40;;;19.20;99.90;;;;;;4999865;28;20401;-82
2022/04/27 11:28:17;;;;;;;3.20;0.83;;;19.00;99.90;;;;;;5013135;28;20675;-81
2022/04/27 11:30:44;;;;;;;6.80;1.23;;;18.10;99.90;;;;;;4999201;28;20295;-82
2022/04/27 11:33:10;;;;;;;0.60;0.60;;;18.50;99.90;;;;;;5004841;28;20195;-82
2022/04/27 11:35:42;;;;;;;0.40;0.40;;;18.80;99.90;;;;;;4999457;28;20211;-81
2022/04/27 11:38:08;;;;;;;1.10;0.93;;;19.20;99.90;;;;;;4998511;28;20183;-81
2022/04/27 11:40:38;;;;;;;0.60;0.60;;;18.90;99.90;;;;;;5011708;28;20230;-81
2022/04/27 11:43:05;;;;;;;1.10;0.93;;;19.00;99.90;;;;;;5004745;28;20671;-81
2022/04/27 11:45:30;;;;;;;0.77;0.77;;;18.30;99.90;;;;;;4997321;28;20237;-81
2022/04/27 11:47:57;;;;;;;0.53;0.37;;;18.30;99.90;;;;;;4998846;28;20185;-81
2022/04/27 11:50:22;;;;;;;0.50;0.50;;;18.10;99.90;;;;;;5003743;28;21192;-80
2022/04/27 11:53:03;;;;;;;0.47;0.40;;;18.40;99.90;;;;;;5000621;28;20219;-80
2022/04/27 11:55:29;;;;;;;2.27;0.70;;;18.50;99.90;;;;;;5001490;28;20188;-81
2022/04/27 11:57:55;;;;;;;0.60;0.60;;;18.60;99.90;;;;;;5008534;28;20230;-81
2022/04/27 12:00:27;;;;;;;0.97;0.40;;;18.40;99.90;;;;;;5000266;28;20693;-81
2022/04/27 12:02:53;;;;;;;0.30;0.30;;;18.90;99.90;;;;;;4995830;28;20198;-81
2022/04/27 12:05:29;;;;;;;0.70;0.70;;;18.90;99.90;;;;;;4997620;28;20287;-81
2022/04/27 12:07:54;;;;;;;0.30;0.30;;;18.30;99.90;;;;;;5005397;28;20196;-81
2022/04/27 12:10:20;;;;;;;0.83;0.47;;;18.20;99.90;;;;;;4997484;28;21161;-81
2022/04/27 12:12:46;;;;;;;0.57;0.40;;;18.50;99.90;;;;;;4998395;28;20184;-81
2022/04/27 12:15:15;;;;;;;0.20;0.20;;;18.20;99.90;;;;;;4999251;28;20191;-81
2022/04/27 12:17:52;;;;;;;0.50;0.50;;;18.40;99.90;;;;;;4999290;28;20563;-81
2022/04/27 12:20:25;;;;;;;0.60;0.60;;;18.10;99.90;;;;;;5000209;28;20214;-81
2022/04/27 12:23:02;;;;;;;0.40;0.40;;;18.40;99.90;;;;;;5011164;28;20186;-81
2022/04/27 12:25:37;;;;;;;0.97;0.50;;;18.90;99.90;;;;;;5003992;28;20187;-81
2022/04/27 12:28:04;;;;;;;0.37;0.37;;;19.40;99.90;;;;;;5001382;28;20173;-81
2022/04/27 12:30:30;;;;;;;0.20;0.20;;;19.80;99.90;;;;;;5001142;28;20744;-82
2022/04/27 12:32:57;;;;;;;0.40;0.40;;;19.00;99.90;;;;;;5007951;28;20198;-81
2022/04/27 12:38:17;;;;;;;0.70;0.70;;;19.60;99.90;;;;;;5001961;28;20715;-81
2022/04/27 12:40:43;;;;;;;0.40;0.40;;;18.70;99.90;;;;;;5001463;28;20307;-82
2022/04/27 12:43:13;;;;;;;0.30;0.30;;;18.60;99.90;;;;;;5015191;28;20205;-81
2022/04/27 12:45:39;;;;;;;1.37;0.93;;;18.90;99.90;;;;;;5002018;28;20179;-81
2022/04/27 12:48:05;;;;;;;0.40;0.40;;;18.50;99.90;;;;;;5007954;28;20271;-81
2022/04/27 12:50:45;;;;;;;0.20;0.20;;;18.60;99.90;;;;;;5007768;28;20213;-81
2022/04/27 12:53:11;;;;;;;0.30;0.30;;;19.30;99.90;;;;;;5002429;28;20172;-81
2022/04/27 12:55:38;;;;;;;0.57;0.57;;;19.90;99.90;;;;;;5015350;28;20197;-81
2022/04/27 12:58:03;;;;;;;0.90;0.53;;;19.60;99.90;;;;;;5002655;28;20187;-81
2022/04/27 13:00:43;;;;;;;0.17;0.17;;;18.70;99.90;;;;;;5006593;28;20213;-81
2022/04/27 13:03:10;;;;;;;0.20;0.20;;;19.30;99.90;;;;;;5002514;28;20175;-82
2022/04/27 13:05:37;;;;;;;0.40;0.40;;;19.80;99.90;;;;;;4999283;28;20191;-82
2022/04/27 13:08:07;;;;;;;0.30;0.30;;;20.20;99.90;;;;;;5000558;28;20861;-82
2022/04/27 13:13:17;;;;;;;0.60;0.60;;;20.60;99.90;;;;;;4999331;28;20584;-81
2022/04/27 13:15:43;;;;;;;0.50;0.50;;;19.90;99.90;;;;;;5000347;28;20187;-82